Time;durP1;ratioP1;P1;durP2;ratioP2;P2;SDS_P1;SDS_P2;PMS_P1;PMS_P2;Temp;Humidity;BMP_temperature;BMP_pressure;BME280_temperature;BME280_humidity;BME280_pressure;Samples;Min_cycle;Max_cycle;Signal;HPM_P1;HPM_P2
2024/01/14 00:00:56;;;;;;;88.00;34.70;;;;;;;0.64;100.00;101352.16;5033529;28;20025;-76
2024/01/14 00:03:22;;;;;;;84.97;31.95;;;;;;;0.61;100.00;101371.69;5033884;28;20041;-75
2024/01/14 00:05:47;;;;;;;86.43;34.92;;;;;;;0.65;100.00;101367.00;5033706;28;20036;-75
2024/01/14 00:08:13;;;;;;;85.35;32.92;;;;;;;0.69;100.00;101373.63;5015848;28;20120;-76
2024/01/14 00:10:38;;;;;;;94.22;38.92;;;;;;;0.63;100.00;101358.41;5015862;28;20017;-77
2024/01/14 00:13:03;;;;;;;81.80;30.98;;;;;;;0.70;100.00;101368.25;5016138;28;20548;-76
2024/01/14 00:15:29;;;;;;;86.55;36.42;;;;;;;0.65;100.00;101362.56;5033496;28;20482;-75
2024/01/14 00:17:54;;;;;;;89.53;32.95;;;;;;;0.59;100.00;101355.22;5033438;28;20367;-76
2024/01/14 00:20:20;;;;;;;70.13;31.98;;;;;;;0.69;100.00;101352.59;5033363;28;20470;-76
2024/01/14 00:22:45;;;;;;;91.75;36.03;;;;;;;0.64;100.00;101353.00;5033428;28;20117;-76
2024/01/14 00:25:11;;;;;;;91.70;34.70;;;;;;;0.72;100.00;101361.03;5015663;28;20425;-75
2024/01/14 00:27:37;;;;;;;108.88;36.00;;;;;;;0.61;100.00;101355.91;5015567;28;20029;-76
2024/01/14 00:30:04;;;;;;;94.65;34.85;;;;;;;0.62;100.00;101347.03;5033248;28;20492;-77
2024/01/14 00:32:29;;;;;;;96.90;33.90;;;;;;;0.66;100.00;101344.97;5015466;28;20474;-76
2024/01/14 00:34:55;;;;;;;95.80;36.95;;;;;;;0.71;100.00;101340.13;5015533;28;20036;-78
2024/01/14 00:37:20;;;;;;;92.53;33.08;;;;;;;0.65;100.00;101341.50;5033136;28;20057;-76
2024/01/14 00:39:45;;;;;;;81.38;32.17;;;;;;;0.65;100.00;101319.63;5033095;28;20413;-75
2024/01/14 00:42:11;;;;;;;75.20;30.70;;;;;;;0.66;100.00;101321.28;5015313;28;20055;-75
2024/01/14 00:44:36;;;;;;;91.30;31.85;;;;;;;0.61;100.00;101329.59;5033195;28;20083;-77
2024/01/14 00:47:02;;;;;;;66.90;31.35;;;;;;;0.68;100.00;101330.69;5015268;28;20029;-78
2024/01/14 00:49:27;;;;;;;96.78;38.15;;;;;;;0.67;100.00;101329.03;5033150;28;20418;-77
2024/01/14 00:51:53;;;;;;;102.25;37.22;;;;;;;0.66;100.00;101324.75;5015141;28;20033;-78
2024/01/14 00:54:18;;;;;;;74.30;30.38;;;;;;;0.66;100.00;101330.00;5032868;28;20060;-76
2024/01/14 00:56:43;;;;;;;91.95;33.35;;;;;;;0.75;100.00;101329.19;5032565;28;20065;-77
2024/01/14 00:59:09;;;;;;;78.22;31.88;;;;;;;0.66;100.00;101323.91;5032458;28;20474;-77
2024/01/14 01:01:34;;;;;;;102.85;36.65;;;;;;;0.65;100.00;101330.97;5032643;28;20068;-76
2024/01/14 01:03:59;;;;;;;100.97;35.60;;;;;;;0.62;100.00;101315.47;5014967;28;20033;-76
2024/01/14 01:06:25;;;;;;;89.28;33.78;;;;;;;0.64;100.00;101300.38;5014793;28;20029;-76
2024/01/14 01:08:50;;;;;;;73.07;31.35;;;;;;;0.62;100.00;101302.31;5032585;28;20029;-76
2024/01/14 01:11:18;;;;;;;97.93;34.70;;;;;;;0.62;100.00;101304.94;5014933;28;20071;-75
2024/01/14 01:13:44;;;;;;;96.28;35.53;;;;;;;0.63;100.00;101300.50;5031715;28;20029;-75
2024/01/14 01:16:09;;;;;;;94.65;34.70;;;;;;;0.64;100.00;101312.69;5014749;28;20558;-75
2024/01/14 01:18:34;;;;;;;98.28;33.63;;;;;;;0.62;100.00;101297.06;5014781;28;20057;-74
2024/01/14 01:21:00;;;;;;;91.55;33.95;;;;;;;0.64;100.00;101299.53;5032398;28;20068;-76
2024/01/14 01:23:26;;;;;;;95.63;33.28;;;;;;;0.58;100.00;101293.88;5014833;28;20034;-76
2024/01/14 01:25:51;;;;;;;101.68;37.55;;;;;;;0.58;100.00;101303.56;5014647;28;20032;-76
2024/01/14 01:28:17;;;;;;;91.18;32.80;;;;;;;0.57;100.00;101304.50;5032386;28;20484;-76
2024/01/14 01:30:42;;;;;;;90.55;32.28;;;;;;;0.58;100.00;101311.47;5032141;28;20033;-78
2024/01/14 01:33:08;;;;;;;81.82;29.35;;;;;;;0.56;100.00;101316.81;5032218;28;20033;-76
2024/01/14 01:35:33;;;;;;;89.85;32.88;;;;;;;0.61;100.00;101309.38;5014390;28;20041;-77
2024/01/14 01:37:59;;;;;;;84.07;33.40;;;;;;;0.60;100.00;101302.44;5031996;28;20033;-78
2024/01/14 01:40:24;;;;;;;78.43;30.95;;;;;;;0.64;100.00;101302.19;5032064;28;20112;-79
2024/01/14 01:42:50;;;;;;;72.45;30.42;;;;;;;0.54;100.00;101286.38;5032348;28;20029;-80
2024/01/14 01:45:15;;;;;;;74.53;30.38;;;;;;;0.53;100.00;101284.69;5014600;28;20060;-78
2024/01/14 01:47:41;;;;;;;76.63;30.40;;;;;;;0.64;100.00;101281.13;5032194;28;20029;-78
2024/01/14 01:50:08;;;;;;;82.38;29.73;;;;;;;0.52;100.00;101277.78;5014263;28;20526;-77
2024/01/14 01:52:34;;;;;;;80.32;33.75;;;;;;;0.46;100.00;101278.34;5014079;28;20065;-79
2024/01/14 01:55:01;;;;;;;86.30;31.30;;;;;;;0.43;100.00;101273.34;5031835;28;20033;-78
2024/01/14 01:57:27;;;;;;;73.97;30.10;;;;;;;0.37;100.00;101272.13;5014130;28;20037;-79
2024/01/14 01:59:53;;;;;;;76.72;32.38;;;;;;;0.42;100.00;101272.53;5014266;28;20140;-79
2024/01/14 02:02:20;;;;;;;69.95;28.60;;;;;;;0.43;100.00;101276.00;5014097;28;20501;-77
2024/01/14 02:04:46;;;;;;;79.78;31.88;;;;;;;0.51;100.00;101284.00;5013954;28;20025;-77
2024/01/14 02:07:11;;;;;;;81.32;31.13;;;;;;;0.45;100.00;101277.50;5031639;28;20382;-78
2024/01/14 02:09:37;;;;;;;72.57;32.08;;;;;;;0.52;100.00;101270.72;5013854;28;20035;-78
2024/01/14 02:12:03;;;;;;;64.47;26.83;;;;;;;0.51;100.00;101276.13;5031692;28;20104;-78
2024/01/14 02:14:28;;;;;;;95.50;35.05;;;;;;;0.49;100.00;101264.91;5031699;28;20112;-77
2024/01/14 02:16:53;;;;;;;80.15;31.27;;;;;;;0.53;100.00;101264.50;5013993;28;20045;-78
2024/01/14 02:19:19;;;;;;;77.10;32.03;;;;;;;0.42;100.00;101259.38;5031694;28;20385;-78
2024/01/14 02:22:26;;;;;;;84.70;33.10;;;;;;;0.52;100.00;101259.38;5031589;28;20447;-78
2024/01/14 02:24:53;;;;;;;68.43;30.30;;;;;;;0.49;100.00;101270.16;4970406;28;20035;-78
2024/01/14 02:27:19;;;;;;;75.82;35.05;;;;;;;0.44;100.00;101256.59;4970524;28;20118;-78
2024/01/14 02:29:44;;;;;;;86.70;34.97;;;;;;;0.39;100.00;101256.19;5000659;28;20195;-78
2024/01/14 02:32:10;;;;;;;90.28;33.33;;;;;;;0.44;100.00;101270.59;5013810;28;20022;-77
2024/01/14 02:34:35;;;;;;;70.88;31.63;;;;;;;0.42;100.00;101259.38;5031455;28;20092;-77
2024/01/14 02:37:02;;;;;;;83.10;33.25;;;;;;;0.40;100.00;101257.84;5013695;28;20076;-78
2024/01/14 02:39:27;;;;;;;85.13;30.55;;;;;;;0.43;100.00;101252.31;5013795;28;20111;-78
2024/01/14 02:41:53;;;;;;;90.28;34.85;;;;;;;0.45;100.00;101239.84;5031314;28;20030;-78
2024/01/14 02:44:18;;;;;;;114.25;39.70;;;;;;;0.40;100.00;101240.28;5031170;28;20033;-77
2024/01/14 02:46:43;;;;;;;84.65;34.53;;;;;;;0.35;100.00;101218.00;5013423;28;20034;-79
2024/01/14 02:49:09;;;;;;;118.38;43.95;;;;;;;0.33;100.00;101217.31;5031817;28;20030;-79
2024/01/14 02:51:34;;;;;;;102.18;41.35;;;;;;;0.41;100.00;101199.84;5013723;28;20110;-80
2024/01/14 02:54:01;;;;;;;112.93;51.15;;;;;;;0.36;100.00;101201.25;5031136;28;20429;-78
2024/01/14 02:56:27;;;;;;;111.75;39.58;;;;;;;0.34;100.00;101211.06;5013499;28;20511;-79
2024/01/14 02:58:52;;;;;;;99.72;34.15;;;;;;;0.34;100.00;101211.06;5013621;28;20033;-79
2024/01/14 03:01:17;;;;;;;111.72;37.00;;;;;;;0.36;100.00;101209.13;5013573;28;20038;-79
2024/01/14 03:03:42;;;;;;;102.13;37.05;;;;;;;0.36;100.00;101195.97;5013414;28;20032;-79
2024/01/14 03:06:08;;;;;;;96.20;33.38;;;;;;;0.42;100.00;101192.78;5031100;28;20124;-78
2024/01/14 03:08:33;;;;;;;77.88;27.33;;;;;;;0.38;100.00;101186.16;5031038;28;20034;-79
2024/01/14 03:10:58;;;;;;;80.75;31.10;;;;;;;0.44;100.00;101193.47;5030908;28;20033;-79
2024/01/14 03:13:24;;;;;;;76.40;29.88;;;;;;;0.39;100.00;101175.50;5013342;28;20036;-80
2024/01/14 03:15:49;;;;;;;77.60;30.70;;;;;;;0.38;100.00;101186.16;5013516;28;20037;-79
2024/01/14 03:18:17;;;;;;;90.05;34.00;;;;;;;0.32;100.00;101176.19;5030884;28;20097;-79
2024/01/14 03:20:43;;;;;;;75.22;32.70;;;;;;;0.41;100.00;101189.34;5013175;28;20030;-80
2024/01/14 03:23:08;;;;;;;80.45;29.55;;;;;;;0.29;100.00;101183.41;5031066;28;20037;-80
2024/01/14 03:25:33;;;;;;;76.00;29.05;;;;;;;0.35;100.00;101183.81;5030925;28;20409;-80
2024/01/14 03:27:59;;;;;;;79.63;30.58;;;;;;;0.35;100.00;101189.06;5013201;28;20034;-80
2024/01/14 03:30:24;;;;;;;61.47;27.45;;;;;;;0.41;100.00;101186.69;5013083;28;20036;-79
2024/01/14 03:32:50;;;;;;;69.32;30.38;;;;;;;0.40;100.00;101171.06;5030634;28;20467;-79
2024/01/14 03:35:15;;;;;;;68.20;29.63;;;;;;;0.41;100.00;101164.84;5012971;28;20052;-78
2024/01/14 03:37:41;;;;;;;83.07;33.10;;;;;;;0.40;100.00;101168.44;5015749;28;20036;-78
2024/01/14 03:40:07;;;;;;;86.90;35.03;;;;;;;0.38;100.00;101163.31;5034051;28;20489;-78
2024/01/14 03:42:32;;;;;;;73.07;29.45;;;;;;;0.35;100.00;101174.13;5016191;28;20368;-78
2024/01/14 03:44:58;;;;;;;75.72;31.55;;;;;;;0.35;100.00;101168.03;5016306;28;20025;-78
2024/01/14 03:47:23;;;;;;;81.22;32.83;;;;;;;0.33;100.00;101159.44;5033746;28;20406;-78
2024/01/14 03:49:48;;;;;;;74.88;30.65;;;;;;;0.40;100.00;101169.25;5033978;28;20029;-78
2024/01/14 03:52:14;;;;;;;78.78;30.80;;;;;;;0.38;100.00;101170.38;5016186;28;20465;-78
2024/01/14 03:54:39;;;;;;;97.55;36.85;;;;;;;0.32;100.00;101161.25;5016179;28;20498;-78
2024/01/14 03:57:05;;;;;;;78.70;30.85;;;;;;;0.30;100.00;101148.25;5016093;28;20041;-78
2024/01/14 03:59:30;;;;;;;85.15;34.53;;;;;;;0.30;100.00;101147.41;5016006;28;20432;-78
2024/01/14 04:01:56;;;;;;;81.47;35.08;;;;;;;0.33;100.00;101147.13;5015884;28;20056;-78
2024/01/14 04:04:21;;;;;;;64.80;25.67;;;;;;;0.31;100.00;101141.19;5033687;28;20025;-77
2024/01/14 04:06:46;;;;;;;82.38;34.78;;;;;;;0.28;100.00;101138.81;5015861;28;20025;-78
2024/01/14 04:09:12;;;;;;;75.20;31.42;;;;;;;0.30;100.00;101150.03;5033653;28;20029;-78
2024/01/14 04:11:37;;;;;;;73.35;32.65;;;;;;;0.35;100.00;101145.19;5033652;28;20040;-77
2024/01/14 04:14:03;;;;;;;78.43;30.23;;;;;;;0.36;100.00;101149.47;5033518;28;20036;-76
2024/01/14 04:16:39;;;;;;;81.63;31.35;;;;;;;0.26;100.00;101144.19;5033541;28;20040;-78
2024/01/14 04:19:04;;;;;;;69.15;31.75;;;;;;;0.25;100.00;101128.56;5015630;28;20512;-77
2024/01/14 04:21:30;;;;;;;70.55;30.90;;;;;;;0.26;100.00;101131.06;5033417;28;20034;-77
2024/01/14 04:23:55;;;;;;;72.97;28.90;;;;;;;0.24;100.00;101117.22;5033375;28;20075;-79
2024/01/14 04:26:22;;;;;;;68.00;30.88;;;;;;;0.33;100.00;101123.47;5033567;28;20100;-78
2024/01/14 04:28:50;;;;;;;77.25;30.02;;;;;;;0.25;100.00;101134.66;5015505;28;20084;-77
2024/01/14 04:31:16;;;;;;;63.97;27.40;;;;;;;0.25;100.00;101134.66;5033281;28;20033;-77
2024/01/14 04:33:42;;;;;;;75.93;31.40;;;;;;;0.24;100.00;101142.69;5015493;28;20036;-78
2024/01/14 04:36:08;;;;;;;65.47;29.42;;;;;;;0.34;100.00;101134.81;5033326;28;20052;-77
2024/01/14 04:38:33;;;;;;;59.35;26.45;;;;;;;0.33;100.00;101127.88;5015480;28;20029;-77
2024/01/14 04:40:59;;;;;;;72.50;30.92;;;;;;;0.37;100.00;101137.97;5015406;28;20033;-78
2024/01/14 04:43:25;;;;;;;59.95;24.35;;;;;;;0.28;100.00;101130.91;5015296;28;20485;-78
2024/01/14 04:45:50;;;;;;;63.53;27.50;;;;;;;0.26;100.00;101130.22;5015293;28;20076;-76
2024/01/14 04:48:15;;;;;;;53.72;24.77;;;;;;;0.22;100.00;101119.16;5014079;28;20079;-77
2024/01/14 04:50:41;;;;;;;60.83;26.50;;;;;;;0.25;100.00;101124.13;5032947;28;20076;-78
2024/01/14 04:53:07;;;;;;;73.57;34.50;;;;;;;0.22;100.00;101121.78;5033021;28;20056;-78
2024/01/14 04:55:32;;;;;;;65.78;26.30;;;;;;;0.18;100.00;101112.53;5032946;28;20513;-77
2024/01/14 04:57:58;;;;;;;59.13;25.98;;;;;;;0.23;100.00;101120.00;5032934;28;20137;-79
2024/01/14 05:00:23;;;;;;;71.38;31.55;;;;;;;0.18;100.00;101112.53;5032813;28;20037;-79
2024/01/14 05:02:48;;;;;;;62.35;27.63;;;;;;;0.20;100.00;101093.97;5032730;28;20136;-77
2024/01/14 05:05:14;;;;;;;52.70;23.05;;;;;;;0.23;100.00;101109.47;5032911;28;20061;-79
2024/01/14 05:07:40;;;;;;;60.20;33.13;;;;;;;0.23;100.00;101101.59;5015054;28;20034;-77
2024/01/14 05:10:06;;;;;;;65.25;27.23;;;;;;;0.22;100.00;101102.56;5014858;28;20482;-78
2024/01/14 05:12:32;;;;;;;64.03;30.60;;;;;;;0.20;100.00;101091.34;5014956;28;20030;-77
2024/01/14 05:14:57;;;;;;;47.05;25.02;;;;;;;0.19;100.00;101097.59;5032590;28;20028;-78
2024/01/14 05:17:24;;;;;;;51.55;20.75;;;;;;;0.13;100.00;101091.09;5032441;28;20030;-79
2024/01/14 05:19:50;;;;;;;48.65;22.17;;;;;;;0.12;100.00;101089.44;5032643;28;20029;-79
2024/01/14 05:22:15;;;;;;;45.88;21.60;;;;;;;0.10;100.00;101082.66;5032351;28;20438;-78
2024/01/14 05:24:44;;;;;;;54.88;23.77;;;;;;;0.11;100.00;101092.22;5032439;28;20025;-79
2024/01/14 05:27:13;;;;;;;55.60;23.02;;;;;;;0.04;100.00;101083.22;5032282;28;20029;-79
2024/01/14 05:29:43;;;;;;;51.97;23.88;;;;;;;0.15;100.00;101073.38;5032411;28;20033;-78
2024/01/14 05:32:11;;;;;;;53.08;23.80;;;;;;;0.07;100.00;101078.50;5014521;28;20065;-76
2024/01/14 05:34:37;;;;;;;54.85;25.25;;;;;;;0.06;100.00;101083.91;5014468;28;20033;-77
2024/01/14 05:37:02;;;;;;;43.80;21.17;;;;;;;0.02;100.00;101072.84;5032144;28;20029;-77
2024/01/14 05:39:28;;;;;;;61.38;33.20;;;;;;;-0.09;100.00;101071.19;5032122;28;20027;-77
2024/01/14 05:41:53;;;;;;;63.60;25.23;;;;;;;-0.06;100.00;101070.06;5014436;28;20470;-78
2024/01/14 05:44:19;;;;;;;53.72;24.10;;;;;;;-0.06;100.00;101056.94;5014689;28;20056;-76
2024/01/14 05:46:44;;;;;;;57.40;25.83;;;;;;;-0.05;100.00;101063.84;5032076;28;20487;-77
2024/01/14 05:49:10;;;;;;;55.10;24.15;;;;;;;-0.07;100.00;101069.25;5014296;28;20056;-76
2024/01/14 05:51:36;;;;;;;51.00;22.23;;;;;;;0.00;100.00;101061.66;5014475;28;20568;-76
2024/01/14 05:54:01;;;;;;;59.83;26.70;;;;;;;-0.05;100.00;101069.09;5014371;28;20112;-77
2024/01/14 05:56:27;;;;;;;63.42;24.13;;;;;;;-0.09;100.00;101049.34;5032042;28;20045;-76
2024/01/14 05:58:53;;;;;;;63.72;28.45;;;;;;;-0.03;100.00;101056.66;5031405;28;20382;-75
2024/01/14 06:01:18;;;;;;;66.63;32.03;;;;;;;-0.08;100.00;101054.44;5031943;28;20044;-78
2024/01/14 06:03:44;;;;;;;66.47;35.17;;;;;;;-0.08;100.00;101051.00;5014107;28;20386;-77
2024/01/14 06:06:09;;;;;;;62.25;24.58;;;;;;;-0.13;100.00;101029.56;5031675;28;20045;-78
2024/01/14 06:08:34;;;;;;;55.63;24.38;;;;;;;-0.04;100.00;101047.09;5014214;28;20120;-77
2024/01/14 06:11:01;;;;;;;59.17;25.65;;;;;;;-0.13;100.00;101040.06;5014095;28;20080;-77
2024/01/14 06:13:27;;;;;;;62.58;25.15;;;;;;;-0.08;100.00;101032.59;5031775;28;20017;-76
2024/01/14 06:15:52;;;;;;;62.78;25.63;;;;;;;-0.08;100.00;101037.84;5031941;28;20048;-77
2024/01/14 06:18:18;;;;;;;77.05;34.55;;;;;;;-0.10;100.00;101037.16;5031766;28;20053;-76
2024/01/14 06:20:43;;;;;;;56.92;25.58;;;;;;;-0.04;100.00;101036.59;5013960;28;20095;-77
2024/01/14 06:23:08;;;;;;;61.13;23.95;;;;;;;-0.03;100.00;101025.09;5013918;28;20021;-76
2024/01/14 06:25:34;;;;;;;54.15;22.73;;;;;;;-0.08;100.00;101022.09;5031618;28;20474;-76
2024/01/14 06:28:02;;;;;;;62.22;27.40;;;;;;;-0.07;100.00;101019.31;5013862;28;20383;-76
2024/01/14 06:30:27;;;;;;;54.97;23.02;;;;;;;-0.11;100.00;101012.69;5031412;28;20112;-76
2024/01/14 06:32:56;;;;;;;70.28;33.53;;;;;;;-0.06;100.00;101007.81;5013617;28;20494;-76
2024/01/14 06:35:21;;;;;;;57.63;23.92;;;;;;;-0.01;100.00;101012.66;5031431;28;20071;-76
2024/01/14 06:37:47;;;;;;;58.58;24.65;;;;;;;-0.03;100.00;101012.78;5013656;28;20037;-76
2024/01/14 06:40:13;;;;;;;53.60;22.40;;;;;;;-0.05;100.00;101013.91;5031297;28;20033;-80
2024/01/14 06:42:38;;;;;;;49.38;19.95;;;;;;;-0.09;100.00;101013.38;5031466;28;20033;-80
2024/01/14 06:45:04;;;;;;;56.85;23.98;;;;;;;-0.08;100.00;100999.25;5013719;28;20385;-80
2024/01/14 06:47:30;;;;;;;42.70;18.02;;;;;;;-0.05;100.00;101000.78;5013516;28;20115;-80
2024/01/14 06:49:55;;;;;;;49.65;21.52;;;;;;;-0.03;100.00;101004.09;5031540;28;20076;-79
2024/01/14 06:52:22;;;;;;;58.47;22.83;;;;;;;-0.05;100.00;101006.03;5031287;28;20036;-80
2024/01/14 06:54:49;;;;;;;54.72;22.95;;;;;;;-0.10;100.00;100992.50;5031176;28;20029;-78
2024/01/14 06:57:14;;;;;;;55.60;23.17;;;;;;;-0.04;100.00;100992.75;5013473;28;20609;-79
2024/01/14 06:59:42;;;;;;;55.22;23.52;;;;;;;-0.01;100.00;100986.38;5031293;28;20174;-79
2024/01/14 07:02:07;;;;;;;54.63;22.88;;;;;;;-0.05;100.00;100990.25;5031062;28;20026;-79
2024/01/14 07:04:33;;;;;;;42.17;18.13;;;;;;;-0.03;100.00;100989.16;5031087;28;20389;-79
2024/01/14 07:06:59;;;;;;;51.38;22.00;;;;;;;-0.13;100.00;100984.88;5031059;28;20462;-79
2024/01/14 07:09:24;;;;;;;47.55;21.95;;;;;;;-0.10;100.00;100977.56;5031268;28;20079;-78
2024/01/14 07:11:50;;;;;;;69.22;30.27;;;;;;;-0.15;100.00;100973.69;5032622;28;20026;-78
2024/01/14 07:14:15;;;;;;;51.45;22.25;;;;;;;-0.11;100.00;100980.31;5034267;28;20024;-78
2024/01/14 07:16:40;;;;;;;53.15;21.55;;;;;;;-0.04;100.00;100982.22;5034398;28;20033;-79
2024/01/14 07:19:06;;;;;;;54.30;20.52;;;;;;;-0.10;100.00;100982.81;5016665;28;20060;-78
2024/01/14 07:21:31;;;;;;;49.70;21.83;;;;;;;-0.09;100.00;100984.47;5016668;28;20121;-79
2024/01/14 07:23:57;;;;;;;46.92;18.92;;;;;;;-0.08;100.00;100970.34;5016303;28;20453;-78
2024/01/14 07:26:23;;;;;;;69.40;31.27;;;;;;;-0.13;100.00;100977.00;5034267;28;20032;-78
2024/01/14 07:28:48;;;;;;;52.67;22.17;;;;;;;-0.09;100.00;100979.22;5016592;28;20390;-78
2024/01/14 07:31:20;;;;;;;56.95;25.88;;;;;;;-0.17;100.00;100980.91;5034383;28;20430;-78
2024/01/14 07:33:46;;;;;;;48.00;22.17;;;;;;;-0.16;100.00;100966.78;5001261;28;20402;-78
2024/01/14 07:36:11;;;;;;;78.43;37.30;;;;;;;-0.19;100.00;100973.16;5034046;28;20073;-77
2024/01/14 07:38:37;;;;;;;65.60;23.95;;;;;;;-0.12;100.00;100971.59;5034097;28;20422;-77
2024/01/14 07:41:03;;;;;;;67.30;30.75;;;;;;;-0.18;100.00;100955.59;5016315;28;20029;-78
2024/01/14 07:43:28;;;;;;;50.80;22.92;;;;;;;-0.16;100.00;100979.91;5016270;28;20052;-77
2024/01/14 07:45:54;;;;;;;52.92;23.63;;;;;;;-0.08;100.00;100980.03;5016101;28;20033;-78
2024/01/14 07:48:19;;;;;;;55.83;21.73;;;;;;;-0.14;100.00;100981.44;5033921;28;20026;-77
2024/01/14 07:50:45;;;;;;;56.83;24.02;;;;;;;-0.13;100.00;100975.22;5033849;28;20037;-79
2024/01/14 07:53:10;;;;;;;59.42;25.75;;;;;;;-0.24;100.00;100958.78;5016052;28;20117;-78
2024/01/14 07:55:35;;;;;;;52.95;23.00;;;;;;;-0.04;100.00;100961.22;5033692;28;20112;-79
2024/01/14 07:58:01;;;;;;;51.35;19.88;;;;;;;-0.11;100.00;100972.44;5016049;28;20109;-78
2024/01/14 08:00:26;;;;;;;60.15;27.38;;;;;;;-0.02;100.00;100974.19;5016033;28;20053;-79
2024/01/14 08:02:51;;;;;;;45.75;21.75;;;;;;;0.02;100.00;100974.78;5033713;28;20057;-80
2024/01/14 08:05:17;;;;;;;49.42;22.25;;;;;;;-0.04;100.00;100968.25;5016108;28;20029;-79
2024/01/14 08:07:42;;;;;;;50.05;20.95;;;;;;;-0.07;100.00;100976.44;5016124;28;20486;-79
2024/01/14 08:10:09;;;;;;;42.38;20.17;;;;;;;0.01;100.00;100970.50;5033650;28;20057;-79
2024/01/14 08:12:34;;;;;;;46.35;19.13;;;;;;;0.00;100.00;100969.66;5016051;28;20064;-79
2024/01/14 08:14:59;;;;;;;47.53;19.20;;;;;;;0.00;100.00;100967.03;5033490;28;20110;-78
2024/01/14 08:17:26;;;;;;;41.80;17.60;;;;;;;0.02;100.00;100967.72;5033360;28;20048;-78
2024/01/14 08:19:51;;;;;;;46.47;18.50;;;;;;;0.01;100.00;100966.06;5033241;28;20386;-77
2024/01/14 08:22:17;;;;;;;40.35;20.88;;;;;;;0.16;100.00;100956.72;5033126;28;20026;-78
2024/01/14 08:24:43;;;;;;;42.78;19.40;;;;;;;0.10;100.00;100969.63;5033535;28;20041;-78
2024/01/14 08:27:08;;;;;;;45.42;19.58;;;;;;;0.08;100.00;100982.91;5033373;28;20139;-78
2024/01/14 08:29:33;;;;;;;42.08;18.75;;;;;;;0.18;100.00;100975.00;5033297;28;20454;-78
2024/01/14 08:31:59;;;;;;;38.50;18.35;;;;;;;0.17;100.00;100978.59;5015495;28;20549;-78
2024/01/14 08:34:25;;;;;;;52.08;22.17;;;;;;;0.20;100.00;100973.88;5033204;28;20033;-77
2024/01/14 08:36:51;;;;;;;43.05;18.80;;;;;;;0.21;100.00;100974.69;5033066;28;20038;-77
2024/01/14 08:39:16;;;;;;;40.28;17.90;;;;;;;0.22;100.00;100966.66;5015295;28;20433;-77
2024/01/14 08:41:41;;;;;;;44.42;19.50;;;;;;;0.22;100.00;100966.66;5033140;28;20029;-77
2024/01/14 08:44:10;;;;;;;49.42;22.23;;;;;;;0.23;100.00;100965.69;5015268;28;20130;-77
2024/01/14 08:46:39;;;;;;;48.90;21.92;;;;;;;0.24;100.00;100969.16;5032881;28;20025;-76
2024/01/14 08:49:04;;;;;;;46.17;22.75;;;;;;;0.26;100.00;100954.88;5015428;28;20037;-76
2024/01/14 08:51:30;;;;;;;47.25;21.08;;;;;;;0.31;100.00;100946.59;5032876;28;20033;-77
2024/01/14 08:54:00;;;;;;;51.30;23.65;;;;;;;0.18;100.00;100944.25;5015077;28;20529;-77
2024/01/14 08:56:29;;;;;;;67.50;24.00;;;;;;;0.26;100.00;100961.94;5015043;28;20056;-77
2024/01/14 08:58:56;;;;;;;52.83;20.88;;;;;;;0.24;100.00;100961.25;5015452;28;20120;-77
2024/01/14 09:01:21;;;;;;;48.65;21.92;;;;;;;0.33;100.00;100952.53;5032965;28;20021;-76
2024/01/14 09:03:46;;;;;;;45.47;23.23;;;;;;;0.41;100.00;100957.06;5015005;28;20029;-76
2024/01/14 09:06:12;;;;;;;56.65;23.27;;;;;;;0.28;100.00;100960.81;5015037;28;20049;-78
2024/01/14 09:08:37;;;;;;;53.38;26.58;;;;;;;0.33;100.00;100959.59;5032739;28;20477;-77
2024/01/14 09:11:02;;;;;;;51.15;23.48;;;;;;;0.30;100.00;100963.34;5015062;28;20038;-76
2024/01/14 09:13:28;;;;;;;53.70;22.50;;;;;;;0.27;100.00;100958.34;5032628;28;20017;-77
2024/01/14 09:15:53;;;;;;;59.90;25.00;;;;;;;0.30;100.00;100944.94;5014808;28;20466;-76
2024/01/14 09:18:18;;;;;;;48.00;19.02;;;;;;;0.30;100.00;100952.81;5014736;28;20545;-77
2024/01/14 09:20:44;;;;;;;49.58;24.02;;;;;;;0.25;100.00;100955.03;5014726;28;20033;-77
2024/01/14 09:23:09;;;;;;;44.67;20.63;;;;;;;0.27;100.00;100947.81;5032404;28;20438;-76
2024/01/14 09:25:34;;;;;;;47.80;21.15;;;;;;;0.28;100.00;100929.28;5032450;28;20056;-76
2024/01/14 09:28:00;;;;;;;60.88;34.03;;;;;;;0.31;100.00;100943.97;5032205;28;20033;-76
2024/01/14 09:30:25;;;;;;;49.15;20.23;;;;;;;0.28;100.00;100937.16;5032276;28;20055;-76
2024/01/14 09:32:50;;;;;;;54.47;22.25;;;;;;;0.28;100.00;100939.78;5014372;28;20029;-76
2024/01/14 09:35:15;;;;;;;53.15;23.65;;;;;;;0.30;100.00;100935.25;5013760;28;20017;-76
2024/01/14 09:37:41;;;;;;;57.08;22.80;;;;;;;0.30;100.00;100934.41;5032052;28;20034;-76
2024/01/14 09:40:07;;;;;;;48.20;23.67;;;;;;;0.38;100.00;100928.41;5032193;28;20032;-76
2024/01/14 09:42:36;;;;;;;60.00;26.30;;;;;;;0.42;100.00;100933.22;5014404;28;20470;-77
2024/01/14 09:45:04;;;;;;;54.67;27.83;;;;;;;0.41;100.00;100922.88;5014371;28;20055;-77
2024/01/14 09:47:31;;;;;;;46.40;21.52;;;;;;;0.43;100.00;100924.38;5014567;28;20033;-77
2024/01/14 09:49:59;;;;;;;45.78;24.63;;;;;;;0.43;100.00;100915.66;5032018;28;20505;-77
2024/01/14 09:52:25;;;;;;;59.33;24.83;;;;;;;0.41;100.00;100926.31;5032092;28;20385;-77
2024/01/14 09:54:51;;;;;;;37.10;17.83;;;;;;;0.51;100.00;100931.53;5014154;28;20035;-77
2024/01/14 09:57:22;;;;;;;47.97;21.80;;;;;;;0.56;100.00;100927.47;5014189;28;20389;-78
2024/01/14 09:59:52;;;;;;;57.33;24.33;;;;;;;0.55;100.00;100927.63;5014265;28;20474;-77
2024/01/14 10:02:18;;;;;;;51.85;22.42;;;;;;;0.60;100.00;100930.66;5031934;28;20466;-78
2024/01/14 10:04:44;;;;;;;44.65;21.60;;;;;;;0.65;100.00;100923.16;5014140;28;20045;-78
2024/01/14 10:07:10;;;;;;;66.65;28.55;;;;;;;0.68;100.00;100920.22;5031697;28;20458;-79
2024/01/14 10:09:39;;;;;;;57.80;27.50;;;;;;;0.68;100.00;100919.38;5013897;28;20054;-79
2024/01/14 10:12:07;;;;;;;53.80;22.92;;;;;;;0.64;100.00;100903.06;5031719;28;20546;-78
2024/01/14 10:14:34;;;;;;;52.55;23.35;;;;;;;0.77;100.00;100907.97;5031604;28;20522;-78
2024/01/14 10:17:00;;;;;;;49.35;22.25;;;;;;;0.84;100.00;100899.31;5031432;28;20108;-77
2024/01/14 10:19:25;;;;;;;56.28;23.95;;;;;;;0.76;100.00;100896.63;5013642;28;20042;-77
2024/01/14 10:21:53;;;;;;;47.05;21.52;;;;;;;0.82;100.00;100889.91;5031240;28;20026;-78
2024/01/14 10:24:18;;;;;;;49.20;23.73;;;;;;;0.85;100.00;100890.44;5031407;28;20025;-76
2024/01/14 10:26:44;;;;;;;49.28;24.95;;;;;;;0.79;100.00;100893.69;5031298;28;20421;-76
2024/01/14 10:29:09;;;;;;;47.80;20.27;;;;;;;0.78;100.00;100899.09;5013629;28;20022;-77
2024/01/14 10:31:35;;;;;;;43.88;23.85;;;;;;;0.73;100.00;100881.13;5031398;28;20335;-76
2024/01/14 10:34:02;;;;;;;40.13;19.38;;;;;;;0.79;100.00;100877.88;5031446;28;20486;-79
2024/01/14 10:36:31;;;;;;;44.97;18.55;;;;;;;0.77;100.00;100877.22;5013754;28;20022;-75
2024/01/14 10:38:59;;;;;;;40.42;17.55;;;;;;;0.76;100.00;100872.94;5031259;28;20120;-76
2024/01/14 10:41:25;;;;;;;34.67;16.73;;;;;;;0.87;100.00;100878.00;5031374;28;20458;-76
2024/01/14 10:43:52;;;;;;;40.95;18.10;;;;;;;0.77;100.00;100871.13;5031127;28;20398;-77
2024/01/14 10:46:17;;;;;;;47.35;26.80;;;;;;;0.57;100.00;100871.25;5033953;28;20025;-77
2024/01/14 10:48:48;;;;;;;40.05;19.90;;;;;;;0.63;100.00;100858.50;5017511;28;20033;-77
2024/01/14 10:51:16;;;;;;;45.63;24.42;;;;;;;0.67;100.00;100857.22;5017426;28;20069;-78
2024/01/14 10:54:20;;;;;;;46.28;22.70;;;;;;;0.51;100.00;100855.25;5017196;28;20071;-78
2024/01/14 10:56:50;;;;;;;43.63;21.08;;;;;;;0.50;100.00;100843.88;5011647;28;20049;-79
2024/01/14 10:59:20;;;;;;;38.83;19.20;;;;;;;0.52;100.00;100835.84;5034819;28;20041;-79
2024/01/14 11:01:50;;;;;;;39.63;19.05;;;;;;;0.57;100.00;100828.34;5034757;28;20120;-79